Time;durP1;ratioP1;P1;durP2;ratioP2;P2;SDS_P1;SDS_P2;PMS_P1;PMS_P2;Temp;Humidity;BMP_temperature;BMP_pressure;BME280_temperature;BME280_humidity;BME280_pressure;Samples;Min_cycle;Max_cycle;Signal;HPM_P1;HPM_P2
2023/12/06 00:00:00;;;;;;;40.95;21.65;;;;;;;;;;6190691;23;20357;-94
2023/12/06 00:02:26;;;;;;;45.35;23.50;;;;;;;;;;6214455;23;20020;-93
2023/12/06 00:04:52;;;;;;;44.53;23.33;;;;;;;;;;6190071;23;20020;-93
2023/12/06 00:07:19;;;;;;;38.88;22.83;;;;;;;;;;6190696;23;20024;-93
2023/12/06 00:09:45;;;;;;;44.15;23.88;;;;;;;;;;6190361;23;20027;-94
2023/12/06 00:12:11;;;;;;;43.55;22.33;;;;;;;;;;6190634;23;20030;-93
2023/12/06 00:14:37;;;;;;;42.30;22.92;;;;;;;;;;6190061;23;20028;-92
2023/12/06 00:17:03;;;;;;;38.00;22.45;;;;;;;;;;6189785;23;20021;-94
2023/12/06 00:19:29;;;;;;;35.97;20.95;;;;;;;;;;6189749;23;20075;-93
2023/12/06 00:21:55;;;;;;;39.50;23.40;;;;;;;;;;6165236;23;20051;-93
2023/12/06 00:24:21;;;;;;;45.53;23.77;;;;;;;;;;6190268;23;20031;-94
2023/12/06 00:26:48;;;;;;;38.40;21.10;;;;;;;;;;6189654;23;20021;-94
2023/12/06 00:29:14;;;;;;;45.13;25.00;;;;;;;;;;6201632;23;20027;-96
2023/12/06 00:31:40;;;;;;;45.30;23.60;;;;;;;;;;6202996;23;20039;-94
2023/12/06 00:34:06;;;;;;;33.72;20.88;;;;;;;;;;6175758;23;20021;-94
2023/12/06 00:36:32;;;;;;;42.17;22.80;;;;;;;;;;6201062;23;20021;-94
2023/12/06 00:38:58;;;;;;;34.72;21.73;;;;;;;;;;6201339;23;20017;-95
2023/12/06 00:41:25;;;;;;;36.63;20.95;;;;;;;;;;6201258;23;20025;-94
2023/12/06 00:43:52;;;;;;;44.55;23.67;;;;;;;;;;6201879;23;20021;-94
2023/12/06 00:46:18;;;;;;;41.78;24.00;;;;;;;;;;6179200;23;20017;-96
2023/12/06 00:48:44;;;;;;;35.38;21.80;;;;;;;;;;6189914;23;20021;-93
2023/12/06 00:51:10;;;;;;;39.15;22.50;;;;;;;;;;6165467;23;20021;-94
2023/12/06 00:53:36;;;;;;;37.00;22.77;;;;;;;;;;6164682;23;20028;-94
2023/12/06 00:56:02;;;;;;;40.70;22.70;;;;;;;;;;6189818;23;20390;-94
2023/12/06 00:58:28;;;;;;;39.85;20.67;;;;;;;;;;6164962;23;20056;-93
2023/12/06 01:00:55;;;;;;;37.88;22.05;;;;;;;;;;6189556;23;20020;-95
2023/12/06 01:03:21;;;;;;;32.30;20.00;;;;;;;;;;6189433;23;20024;-93
2023/12/06 01:05:47;;;;;;;39.92;23.90;;;;;;;;;;6189671;23;20024;-94
2023/12/06 01:08:13;;;;;;;36.63;21.02;;;;;;;;;;6189765;23;20020;-92
2023/12/06 01:10:42;;;;;;;36.92;20.85;;;;;;;;;;6165327;23;20155;-93
2023/12/06 01:13:08;;;;;;;38.25;21.92;;;;;;;;;;6189878;23;20056;-94
2023/12/06 01:15:35;;;;;;;39.88;23.02;;;;;;;;;;6189476;23;20103;-91
2023/12/06 01:18:01;;;;;;;34.38;20.67;;;;;;;;;;6189567;23;20393;-93
2023/12/06 01:20:27;;;;;;;39.83;22.02;;;;;;;;;;6209014;23;20100;-93
2023/12/06 01:22:53;;;;;;;36.90;21.60;;;;;;;;;;6214700;23;20027;-94
2023/12/06 01:25:19;;;;;;;39.50;21.77;;;;;;;;;;6165211;23;20021;-94
2023/12/06 01:27:45;;;;;;;30.80;18.42;;;;;;;;;;6214836;22;20086;-93
2023/12/06 01:30:11;;;;;;;33.47;20.10;;;;;;;;;;6214817;22;20020;-95
2023/12/06 01:32:37;;;;;;;33.42;20.05;;;;;;;;;;6165093;23;20016;-95
2023/12/06 01:35:04;;;;;;;30.80;18.92;;;;;;;;;;6214452;22;20028;-94
2023/12/06 01:37:32;;;;;;;35.65;21.05;;;;;;;;;;6214721;23;20403;-93
2023/12/06 01:39:58;;;;;;;31.92;18.70;;;;;;;;;;6215162;22;20078;-95
2023/12/06 01:42:24;;;;;;;32.58;19.88;;;;;;;;;;6214735;22;20072;-94
2023/12/06 01:44:50;;;;;;;30.17;18.55;;;;;;;;;;6214812;22;20036;-93
2023/12/06 01:47:17;;;;;;;33.92;18.35;;;;;;;;;;6164905;23;20016;-93
2023/12/06 01:49:44;;;;;;;28.02;18.30;;;;;;;;;;6214593;22;20024;-93
2023/12/06 01:52:10;;;;;;;31.88;18.63;;;;;;;;;;6165097;23;20052;-95
2023/12/06 01:54:36;;;;;;;27.73;17.77;;;;;;;;;;6215165;22;20028;-93
2023/12/06 01:57:02;;;;;;;30.45;17.67;;;;;;;;;;6165416;23;20350;-92
2023/12/06 01:59:28;;;;;;;25.50;16.33;;;;;;;;;;6165063;23;20028;-93
2023/12/06 02:01:54;;;;;;;28.95;18.50;;;;;;;;;;6214792;22;20021;-93
2023/12/06 02:04:20;;;;;;;27.77;18.40;;;;;;;;;;6214332;22;20461;-93
2023/12/06 02:06:47;;;;;;;28.77;18.60;;;;;;;;;;6164975;23;20099;-93
2023/12/06 02:09:14;;;;;;;26.60;16.67;;;;;;;;;;6214711;22;20025;-94
2023/12/06 02:11:40;;;;;;;29.27;16.38;;;;;;;;;;6214973;22;20025;-93
2023/12/06 02:14:07;;;;;;;25.33;16.65;;;;;;;;;;6214996;22;20028;-93
2023/12/06 02:16:33;;;;;;;26.52;16.48;;;;;;;;;;6215028;22;20067;-94
2023/12/06 02:18:59;;;;;;;31.25;18.70;;;;;;;;;;6214645;22;20115;-93
2023/12/06 02:21:25;;;;;;;24.80;16.30;;;;;;;;;;6189387;23;20016;-93
2023/12/06 02:23:51;;;;;;;25.42;16.42;;;;;;;;;;6189438;23;20025;-92
2023/12/06 02:26:17;;;;;;;24.67;16.63;;;;;;;;;;6189927;23;20477;-92
2023/12/06 02:28:43;;;;;;;25.23;16.85;;;;;;;;;;6166382;23;20031;-93
2023/12/06 02:31:09;;;;;;;23.90;15.45;;;;;;;;;;6191487;23;20072;-93
2023/12/06 02:33:36;;;;;;;22.67;16.33;;;;;;;;;;6191156;23;20020;-92
2023/12/06 02:36:05;;;;;;;25.90;16.83;;;;;;;;;;6191128;23;20021;-93
2023/12/06 02:38:33;;;;;;;22.63;14.50;;;;;;;;;;6166465;23;20025;-93
2023/12/06 02:41:01;;;;;;;23.00;15.68;;;;;;;;;;6216201;23;20021;-94
2023/12/06 02:43:27;;;;;;;23.38;15.63;;;;;;;;;;6191164;23;20021;-93
2023/12/06 02:45:54;;;;;;;22.20;14.45;;;;;;;;;;6190866;23;20021;-93
2023/12/06 02:48:20;;;;;;;21.13;14.82;;;;;;;;;;6190792;23;20342;-93
2023/12/06 02:50:46;;;;;;;26.70;15.85;;;;;;;;;;6165757;23;20024;-92
2023/12/06 02:53:12;;;;;;;20.95;14.70;;;;;;;;;;6191091;23;20023;-93
2023/12/06 02:55:38;;;;;;;26.58;15.13;;;;;;;;;;6166288;23;20036;-93
2023/12/06 02:58:04;;;;;;;21.17;14.82;;;;;;;;;;6190439;23;20017;-94
2023/12/06 03:00:30;;;;;;;21.65;14.75;;;;;;;;;;6190423;23;20056;-92
2023/12/06 03:02:56;;;;;;;21.20;14.15;;;;;;;;;;6190283;23;20021;-92
2023/12/06 03:05:22;;;;;;;24.67;14.52;;;;;;;;;;6166019;23;20024;-94
2023/12/06 03:07:48;;;;;;;26.65;13.90;;;;;;;;;;6190654;23;20027;-92
2023/12/06 03:10:15;;;;;;;19.65;14.07;;;;;;;;;;6190410;23;20417;-94
2023/12/06 03:12:41;;;;;;;21.17;14.02;;;;;;;;;;6190505;23;20016;-94
2023/12/06 03:15:07;;;;;;;20.95;14.57;;;;;;;;;;6190347;23;20027;-94
2023/12/06 03:17:33;;;;;;;20.45;14.65;;;;;;;;;;6190320;23;20528;-95
2023/12/06 03:19:59;;;;;;;19.77;13.63;;;;;;;;;;6190279;23;20020;-93
2023/12/06 03:22:25;;;;;;;20.00;14.18;;;;;;;;;;6165398;23;20016;-93
2023/12/06 03:24:51;;;;;;;22.55;13.98;;;;;;;;;;6165694;23;20060;-91
2023/12/06 03:27:17;;;;;;;19.65;13.68;;;;;;;;;;6190595;23;20063;-92
2023/12/06 03:29:44;;;;;;;20.40;14.15;;;;;;;;;;6165794;23;20031;-94
2023/12/06 03:32:10;;;;;;;25.25;13.85;;;;;;;;;;6190828;23;20021;-93
2023/12/06 03:34:36;;;;;;;19.75;14.20;;;;;;;;;;6190833;23;20025;-93
2023/12/06 03:37:03;;;;;;;18.83;13.35;;;;;;;;;;6190830;23;20021;-93
2023/12/06 03:39:29;;;;;;;23.27;14.50;;;;;;;;;;6191103;23;20047;-93
2023/12/06 03:41:55;;;;;;;20.50;12.95;;;;;;;;;;6166461;23;20020;-93
2023/12/06 03:44:25;;;;;;;22.48;13.88;;;;;;;;;;6190724;23;20024;-92
2023/12/06 03:46:51;;;;;;;17.77;12.65;;;;;;;;;;6190529;23;20350;-93
2023/12/06 03:49:17;;;;;;;16.77;12.45;;;;;;;;;;6190250;23;20055;-92
2023/12/06 03:51:43;;;;;;;22.15;14.20;;;;;;;;;;6190459;23;20516;-94
2023/12/06 03:54:09;;;;;;;18.88;13.63;;;;;;;;;;6190350;23;20031;-93
2023/12/06 03:56:35;;;;;;;20.05;13.98;;;;;;;;;;6190592;23;20115;-93
2023/12/06 03:59:01;;;;;;;17.58;12.90;;;;;;;;;;6190143;23;20362;-93
2023/12/06 04:01:27;;;;;;;21.13;13.60;;;;;;;;;;6190363;23;20012;-93
2023/12/06 04:03:53;;;;;;;18.95;12.82;;;;;;;;;;6165210;23;20103;-93
2023/12/06 04:06:20;;;;;;;17.83;13.43;;;;;;;;;;6190276;23;20024;-93
2023/12/06 04:08:46;;;;;;;20.95;13.50;;;;;;;;;;6190089;23;20491;-93
2023/12/06 04:11:12;;;;;;;16.67;12.85;;;;;;;;;;6190195;23;20480;-93
2023/12/06 04:13:38;;;;;;;17.88;12.13;;;;;;;;;;6189886;23;20071;-93
2023/12/06 04:16:05;;;;;;;19.38;12.38;;;;;;;;;;6190173;23;20020;-93
2023/12/06 04:18:31;;;;;;;21.25;13.55;;;;;;;;;;6189710;23;20031;-93
2023/12/06 04:20:57;;;;;;;21.65;12.90;;;;;;;;;;6168270;23;20185;-93
2023/12/06 04:23:23;;;;;;;23.33;12.85;;;;;;;;;;6191243;23;20048;-92
2023/12/06 04:25:49;;;;;;;19.52;13.05;;;;;;;;;;6190043;23;20025;-93
2023/12/06 04:28:15;;;;;;;20.92;12.82;;;;;;;;;;6190460;23;20039;-93
2023/12/06 04:30:41;;;;;;;21.63;12.85;;;;;;;;;;6165420;23;20086;-93
2023/12/06 04:33:07;;;;;;;21.33;13.88;;;;;;;;;;6189675;23;20452;-92
2023/12/06 04:35:33;;;;;;;18.13;12.98;;;;;;;;;;6190067;23;20016;-91
2023/12/06 04:37:59;;;;;;;26.67;13.48;;;;;;;;;;6164835;23;20127;-92
2023/12/06 04:40:25;;;;;;;20.20;13.57;;;;;;;;;;6164855;23;20496;-92
2023/12/06 04:42:51;;;;;;;22.25;13.05;;;;;;;;;;6189530;23;20622;-92
2023/12/06 04:45:17;;;;;;;19.35;13.30;;;;;;;;;;6189659;23;20028;-93
2023/12/06 04:47:44;;;;;;;19.35;12.77;;;;;;;;;;6164610;23;20487;-93
2023/12/06 04:50:10;;;;;;;22.98;13.90;;;;;;;;;;6189061;23;20031;-93
2023/12/06 04:52:36;;;;;;;19.75;13.70;;;;;;;;;;6189809;23;20016;-93
2023/12/06 04:55:04;;;;;;;19.67;11.95;;;;;;;;;;6189607;23;20020;-94
2023/12/06 04:57:30;;;;;;;16.98;11.38;;;;;;;;;;6189601;23;20023;-92
2023/12/06 04:59:56;;;;;;;18.15;12.30;;;;;;;;;;6164941;23;20025;-92
2023/12/06 05:02:22;;;;;;;20.15;12.18;;;;;;;;;;6189217;23;20059;-92
2023/12/06 05:04:49;;;;;;;20.50;14.18;;;;;;;;;;6189573;23;20024;-92
2023/12/06 05:07:15;;;;;;;18.13;11.75;;;;;;;;;;6189394;23;20099;-92
2023/12/06 05:09:41;;;;;;;21.45;14.55;;;;;;;;;;6164634;23;20047;-93
2023/12/06 05:12:07;;;;;;;16.50;12.23;;;;;;;;;;6189850;23;20435;-91
2023/12/06 05:14:33;;;;;;;19.48;12.23;;;;;;;;;;6189250;23;20024;-93
2023/12/06 05:17:00;;;;;;;16.88;11.55;;;;;;;;;;6189446;23;20027;-93
2023/12/06 05:19:26;;;;;;;17.70;11.82;;;;;;;;;;6170235;23;20020;-93
2023/12/06 05:21:53;;;;;;;20.83;11.30;;;;;;;;;;6219683;23;20051;-94
2023/12/06 05:24:20;;;;;;;19.85;13.00;;;;;;;;;;6219168;23;20027;-93
2023/12/06 05:26:46;;;;;;;17.35;12.25;;;;;;;;;;6219272;23;20066;-92
2023/12/06 05:29:12;;;;;;;17.50;12.73;;;;;;;;;;6219699;23;20020;-93
2023/12/06 05:31:39;;;;;;;16.13;12.20;;;;;;;;;;6219392;23;20058;-92
2023/12/06 05:34:05;;;;;;;18.52;12.38;;;;;;;;;;6193989;23;20020;-92
2023/12/06 05:36:31;;;;;;;18.40;12.02;;;;;;;;;;6219830;23;20024;-93
2023/12/06 05:38:57;;;;;;;16.13;11.73;;;;;;;;;;6218396;23;20055;-92
2023/12/06 05:41:23;;;;;;;21.15;11.93;;;;;;;;;;6219028;23;20016;-92
2023/12/06 05:43:50;;;;;;;17.23;12.68;;;;;;;;;;6193879;23;20135;-92
2023/12/06 05:46:16;;;;;;;17.50;11.90;;;;;;;;;;6194375;23;20016;-92
2023/12/06 05:48:42;;;;;;;16.48;10.70;;;;;;;;;;6218949;23;20031;-93
2023/12/06 05:51:08;;;;;;;17.25;11.73;;;;;;;;;;6219137;23;20094;-92
2023/12/06 05:53:34;;;;;;;16.27;10.98;;;;;;;;;;6194381;23;20020;-92
2023/12/06 05:56:00;;;;;;;17.92;10.52;;;;;;;;;;6197989;23;20078;-92
2023/12/06 05:58:26;;;;;;;15.07;11.73;;;;;;;;;;6196351;23;20016;-92
2023/12/06 06:00:52;;;;;;;15.88;11.43;;;;;;;;;;6231771;23;20111;-93
2023/12/06 06:03:18;;;;;;;16.17;11.30;;;;;;;;;;6218381;23;20050;-91
2023/12/06 06:05:44;;;;;;;18.40;11.63;;;;;;;;;;6219195;23;20357;-91
2023/12/06 06:08:10;;;;;;;15.05;10.57;;;;;;;;;;6195448;23;20031;-93
2023/12/06 06:10:36;;;;;;;18.05;11.23;;;;;;;;;;6196854;23;20024;-92
2023/12/06 06:13:02;;;;;;;16.63;10.52;;;;;;;;;;6223025;22;20345;-91
2023/12/06 06:15:29;;;;;;;16.95;10.88;;;;;;;;;;6251630;23;20024;-94
2023/12/06 06:17:55;;;;;;;28.50;11.05;;;;;;;;;;6231173;23;20043;-94
2023/12/06 06:20:21;;;;;;;22.90;10.20;;;;;;;;;;6228318;23;20028;-95
2023/12/06 06:22:47;;;;;;;14.57;10.63;;;;;;;;;;6251917;23;20027;-94
2023/12/06 06:25:16;;;;;;;24.92;10.85;;;;;;;;;;6227876;23;20120;-95
2023/12/06 06:27:45;;;;;;;16.85;10.88;;;;;;;;;;6226949;23;20020;-95
2023/12/06 06:30:11;;;;;;;17.15;11.23;;;;;;;;;;6231597;23;20472;-94
2023/12/06 06:32:38;;;;;;;15.07;9.65;;;;;;;;;;6256333;23;20020;-94
2023/12/06 06:35:04;;;;;;;14.50;11.10;;;;;;;;;;6221903;23;20020;-94
2023/12/06 06:37:31;;;;;;;16.77;10.98;;;;;;;;;;6203420;23;20099;-93
2023/12/06 06:39:57;;;;;;;17.05;10.93;;;;;;;;;;6244201;23;20031;-92
2023/12/06 06:42:23;;;;;;;16.30;11.65;;;;;;;;;;6218906;23;20021;-93
2023/12/06 06:44:51;;;;;;;12.60;9.93;;;;;;;;;;6193964;23;20059;-94
2023/12/06 06:47:17;;;;;;;13.88;10.57;;;;;;;;;;6169469;23;20059;-93
2023/12/06 06:49:45;;;;;;;13.38;10.77;;;;;;;;;;6193981;23;20341;-93
2023/12/06 06:52:12;;;;;;;21.17;10.98;;;;;;;;;;6193731;23;20103;-94
2023/12/06 06:54:38;;;;;;;14.88;11.63;;;;;;;;;;6219601;23;20020;-93
2023/12/06 06:57:04;;;;;;;15.20;10.20;;;;;;;;;;6218673;23;20022;-93
2023/12/06 06:59:30;;;;;;;14.23;10.13;;;;;;;;;;6193427;23;20024;-94
2023/12/06 07:01:56;;;;;;;15.77;11.25;;;;;;;;;;6197152;23;20016;-94
2023/12/06 07:04:25;;;;;;;13.95;10.25;;;;;;;;;;6218674;23;20028;-93
2023/12/06 07:06:51;;;;;;;16.83;11.45;;;;;;;;;;6192335;23;20024;-94
2023/12/06 07:09:17;;;;;;;17.77;10.80;;;;;;;;;;6191760;23;20024;-93
2023/12/06 07:11:43;;;;;;;16.88;10.25;;;;;;;;;;6192988;23;20078;-93
2023/12/06 07:14:09;;;;;;;14.00;10.18;;;;;;;;;;6220168;23;20024;-93
2023/12/06 07:16:35;;;;;;;14.52;11.10;;;;;;;;;;6194995;23;20012;-93
2023/12/06 07:19:02;;;;;;;18.13;10.52;;;;;;;;;;6220319;23;20062;-94
2023/12/06 07:21:28;;;;;;;13.80;9.68;;;;;;;;;;6179764;23;20025;-92
2023/12/06 07:23:54;;;;;;;13.07;10.27;;;;;;;;;;6165198;23;20024;-94
2023/12/06 07:26:20;;;;;;;12.20;10.07;;;;;;;;;;6165308;23;20020;-92
2023/12/06 07:28:46;;;;;;;13.63;10.85;;;;;;;;;;6166503;23;20020;-94
2023/12/06 07:31:12;;;;;;;15.60;10.63;;;;;;;;;;6150425;23;20024;-92
2023/12/06 07:33:39;;;;;;;14.52;9.80;;;;;;;;;;6163527;23;20103;-93
2023/12/06 07:36:06;;;;;;;12.77;9.82;;;;;;;;;;6164546;23;20024;-93
2023/12/06 07:38:32;;;;;;;17.73;10.50;;;;;;;;;;6139709;23;20027;-93
2023/12/06 07:41:02;;;;;;;17.60;11.10;;;;;;;;;;6164561;23;20031;-94
2023/12/06 07:43:28;;;;;;;12.48;9.63;;;;;;;;;;6165084;23;20114;-92
2023/12/06 07:45:55;;;;;;;13.43;9.80;;;;;;;;;;6164030;23;20025;-93
2023/12/06 07:48:27;;;;;;;12.30;9.32;;;;;;;;;;6139125;23;20845;-93
2023/12/06 07:50:53;;;;;;;15.35;10.38;;;;;;;;;;6154924;23;20059;-92
2023/12/06 07:53:26;;;;;;;15.45;10.05;;;;;;;;;;6154133;23;20016;-93
2023/12/06 07:55:55;;;;;;;14.05;9.05;;;;;;;;;;6179510;23;20029;-92
2023/12/06 07:58:22;;;;;;;16.42;10.15;;;;;;;;;;6178886;23;20032;-93
2023/12/06 08:00:50;;;;;;;11.95;9.13;;;;;;;;;;6153557;23;20031;-92
2023/12/06 08:03:18;;;;;;;13.82;9.95;;;;;;;;;;6129633;23;20020;-93
2023/12/06 08:05:50;;;;;;;13.13;10.13;;;;;;;;;;6155210;23;20055;-91
2023/12/06 08:08:16;;;;;;;13.80;10.23;;;;;;;;;;6153355;23;20095;-92
2023/12/06 08:10:43;;;;;;;12.73;9.82;;;;;;;;;;6177956;23;20024;-90
2023/12/06 08:13:09;;;;;;;16.83;9.85;;;;;;;;;;6129614;23;20159;-93
2023/12/06 08:15:36;;;;;;;14.43;8.85;;;;;;;;;;6153773;23;20031;-93
2023/12/06 08:18:02;;;;;;;12.93;9.70;;;;;;;;;;6153396;23;20095;-90
2023/12/06 08:20:29;;;;;;;16.85;9.98;;;;;;;;;;6127762;23;20029;-92
2023/12/06 08:22:57;;;;;;;19.17;10.13;;;;;;;;;;6128909;23;20017;-94
2023/12/06 08:25:23;;;;;;;15.38;10.05;;;;;;;;;;6152476;23;20497;-93
2023/12/06 08:27:49;;;;;;;13.23;10.15;;;;;;;;;;6177546;23;20146;-89
2023/12/06 08:30:15;;;;;;;13.50;10.27;;;;;;;;;;6152756;23;20054;-91
2023/12/06 08:32:41;;;;;;;12.68;9.35;;;;;;;;;;6177761;23;20946;-92
2023/12/06 08:35:08;;;;;;;15.77;9.52;;;;;;;;;;6152593;23;20031;-93
2023/12/06 08:37:34;;;;;;;16.40;10.60;;;;;;;;;;6177661;23;20031;-94
2023/12/06 08:40:00;;;;;;;14.77;9.68;;;;;;;;;;6153404;23;20043;-92
2023/12/06 08:42:26;;;;;;;13.32;10.65;;;;;;;;;;6128673;23;20029;-91
2023/12/06 08:44:55;;;;;;;13.45;10.10;;;;;;;;;;6177728;23;20077;-92
2023/12/06 08:47:21;;;;;;;16.08;9.68;;;;;;;;;;6176903;23;20541;-93
2023/12/06 08:49:48;;;;;;;14.25;9.38;;;;;;;;;;6177395;23;20027;-91
2023/12/06 08:52:14;;;;;;;14.90;10.93;;;;;;;;;;6177084;23;20025;-91
2023/12/06 08:54:40;;;;;;;17.20;11.55;;;;;;;;;;6152175;23;20146;-91
2023/12/06 08:57:13;;;;;;;12.68;10.02;;;;;;;;;;6177143;23;20021;-92
2023/12/06 08:59:40;;;;;;;11.75;10.00;;;;;;;;;;6177172;23;20107;-93
2023/12/06 09:02:11;;;;;;;14.52;10.77;;;;;;;;;;6177168;23;20023;-92
2023/12/06 09:04:37;;;;;;;12.63;10.05;;;;;;;;;;6152413;23;20056;-92
2023/12/06 09:07:03;;;;;;;17.10;11.27;;;;;;;;;;6177418;23;20096;-92
2023/12/06 09:09:30;;;;;;;18.13;11.05;;;;;;;;;;6177195;23;20103;-91
2023/12/06 09:12:00;;;;;;;12.38;10.98;;;;;;;;;;6203627;23;20059;-91
2023/12/06 09:14:26;;;;;;;14.50;10.82;;;;;;;;;;6151678;23;20062;-90
2023/12/06 09:16:52;;;;;;;14.82;10.73;;;;;;;;;;6152382;23;20020;-92
2023/12/06 09:19:20;;;;;;;15.38;11.35;;;;;;;;;;6177133;23;20028;-92
2023/12/06 09:21:48;;;;;;;15.73;11.63;;;;;;;;;;6180617;23;20099;-91
2023/12/06 09:24:14;;;;;;;15.68;11.30;;;;;;;;;;6201550;23;20424;-91
2023/12/06 09:26:41;;;;;;;15.88;11.15;;;;;;;;;;6177578;23;20135;-92
2023/12/06 09:29:09;;;;;;;15.05;8.55;;;;;;;;;;6178319;23;20034;-93
2023/12/06 09:31:35;;;;;;;16.13;9.25;;;;;;;;;;6153374;23;20743;-92
2023/12/06 09:34:02;;;;;;;12.93;7.68;;;;;;;;;;6173399;23;20080;-93
2023/12/06 09:36:29;;;;;;;12.80;8.45;;;;;;;;;;6203646;23;20028;-94
2023/12/06 09:38:58;;;;;;;11.32;8.05;;;;;;;;;;6203776;23;20079;-93
2023/12/06 09:41:28;;;;;;;10.95;8.40;;;;;;;;;;6178064;23;20025;-91
2023/12/06 09:43:54;;;;;;;10.88;8.02;;;;;;;;;;6177464;23;20025;-92
2023/12/06 09:46:21;;;;;;;9.48;7.97;;;;;;;;;;6189950;23;20055;-93
2023/12/06 09:48:47;;;;;;;11.45;8.02;;;;;;;;;;6203789;23;20048;-93
2023/12/06 09:51:13;;;;;;;12.63;7.63;;;;;;;;;;6203845;23;20024;-93
2023/12/06 09:53:39;;;;;;;10.57;7.07;;;;;;;;;;6179975;23;20104;-93
2023/12/06 09:56:08;;;;;;;13.63;8.02;;;;;;;;;;6188311;23;20063;-92
2023/12/06 09:58:34;;;;;;;8.43;6.50;;;;;;;;;;6187789;23;20024;-92
2023/12/06 10:01:01;;;;;;;10.90;6.97;;;;;;;;;;6162371;23;20032;-91
2023/12/06 10:03:27;;;;;;;8.45;6.53;;;;;;;;;;6184594;23;20082;-92
2023/12/06 10:05:58;;;;;;;8.48;6.55;;;;;;;;;;6184974;23;20020;-93
2023/12/06 10:08:24;;;;;;;7.05;6.10;;;;;;;;;;6162642;23;20048;-91
2023/12/06 10:11:00;;;;;;;11.10;6.85;;;;;;;;;;6179282;23;20454;-92
2023/12/06 10:13:33;;;;;;;10.13;7.82;;;;;;;;;;6178821;23;20024;-93
2023/12/06 10:15:59;;;;;;;;;;;;;;;;;;6179878;23;20029;-93
2023/12/06 10:18:26;;;;;;;11.25;6.95;;;;;;;;;;6178380;23;20352;-92
2023/12/06 10:20:52;;;;;;;14.63;7.80;;;;;;;;;;6156967;23;20051;-93
2023/12/06 10:23:18;;;;;;;11.90;7.50;;;;;;;;;;6178923;23;20032;-92
2023/12/06 10:25:47;;;;;;;9.48;7.43;;;;;;;;;;6129099;23;20056;-93
2023/12/06 10:28:13;;;;;;;14.52;6.75;;;;;;;;;;6179224;23;20060;-93
2023/12/06 10:30:39;;;;;;;10.90;7.15;;;;;;;;;;6129536;23;20021;-92
2023/12/06 10:33:06;;;;;;;9.80;6.88;;;;;;;;;;6129967;23;20480;-92
2023/12/06 10:35:36;;;;;;;10.73;7.18;;;;;;;;;;6179541;23;20028;-93
2023/12/06 10:38:03;;;;;;;12.73;6.43;;;;;;;;;;6130180;23;20446;-91
2023/12/06 10:40:29;;;;;;;15.27;7.38;;;;;;;;;;6179527;23;20031;-93
2023/12/06 10:43:00;;;;;;;11.07;7.45;;;;;;;;;;6179315;23;20021;-93
2023/12/06 10:45:26;;;;;;;9.32;7.22;;;;;;;;;;6179086;23;20446;-93
2023/12/06 10:47:53;;;;;;;7.90;7.07;;;;;;;;;;6131716;23;20025;-93
2023/12/06 10:50:20;;;;;;;13.48;8.65;;;;;;;;;;6181043;23;20095;-93
2023/12/06 10:52:48;;;;;;;12.27;7.40;;;;;;;;;;6197551;23;20024;-93
2023/12/06 10:55:14;;;;;;;7.78;6.88;;;;;;;;;;6201651;23;20032;-93
2023/12/06 10:57:42;;;;;;;11.00;6.47;;;;;;;;;;6180945;23;20028;-91
2023/12/06 11:00:08;;;;;;;8.27;6.82;;;;;;;;;;6181239;23;20111;-92
2023/12/06 11:02:34;;;;;;;11.73;7.47;;;;;;;;;;6180754;23;20103;-91
2023/12/06 11:05:05;;;;;;;11.02;6.80;;;;;;;;;;6196366;23;20043;-93
2023/12/06 11:07:34;;;;;;;13.18;7.50;;;;;;;;;;6204571;23;20028;-92
2023/12/06 11:10:08;;;;;;;11.40;8.45;;;;;;;;;;6192649;23;20028;-91
2023/12/06 11:12:50;;;;;;;9.00;7.07;;;;;;;;;;6179619;23;20020;-92
2023/12/06 11:15:26;;;;;;;9.55;7.00;;;;;;;;;;6180211;23;20034;-92
2023/12/06 11:18:13;;;;;;;11.23;7.68;;;3.50;99.90;;;;;;6180937;23;20067;-93
2023/12/06 11:20:40;;;;;;;8.82;7.15;;;;;;;;;;6155784;23;20024;-92
2023/12/06 11:23:06;;;;;;;9.80;7.72;;;;;;;;;;6180271;23;20025;-92
2023/12/06 11:25:32;;;;;;;11.98;7.75;;;;;;;;;;6180806;23;20521;-93
2023/12/06 11:27:59;;;;;;;11.35;7.60;;;;;;;;;;6155798;23;20078;-92
2023/12/06 11:30:25;;;;;;;10.07;8.15;;;;;;;;;;6131353;23;20031;-93
2023/12/06 11:32:59;;;;;;;11.40;7.60;;;;;;;;;;6180942;23;20036;-93
2023/12/06 11:35:25;;;;;;;13.00;7.57;;;;;;;;;;6180886;23;20111;-93
2023/12/06 11:37:55;;;;;;;10.20;7.10;;;;;;;;;;6180557;23;20032;-92
2023/12/06 11:40:22;;;;;;;11.45;7.68;;;;;;;;;;6180800;23;20661;-92
2023/12/06 11:42:53;;;;;;;9.05;5.93;;;;;;;;;;6180660;23;20024;-92
2023/12/06 11:45:39;;;;;;;10.75;7.28;;;;;;;;;;6179833;23;20466;-92
2023/12/06 11:48:06;;;;;;;10.35;7.25;;;;;;;;;;6181401;23;20035;-94
2023/12/06 11:50:42;;;;;;;9.25;6.90;;;;;;;;;;6180573;23;20494;-92
2023/12/06 11:53:08;;;;;;;12.27;7.45;;;;;;;;;;6180741;23;20874;-91
2023/12/06 11:55:35;;;;;;;11.18;7.57;;;;;;;;;;6181480;23;20068;-93
2023/12/06 11:58:02;;;;;;;12.70;7.28;;;;;;;;;;6180325;23;20028;-92
2023/12/06 12:00:32;;;;;;;12.43;6.50;;;;;;;;;;6180194;23;20159;-93
2023/12/06 12:03:00;;;;;;;11.75;7.22;;;;;;;;;;6181284;23;20060;-93
2023/12/06 12:05:26;;;;;;;10.55;7.40;;;;;;;;;;6181224;23;20548;-93
2023/12/06 12:07:52;;;;;;;8.40;6.75;;;;;;;;;;6132444;23;20025;-92
2023/12/06 12:10:19;;;;;;;10.27;6.93;;;;;;;;;;6131547;23;20060;-93
2023/12/06 12:12:49;;;;;;;8.07;6.65;;;;;;;;;;6180859;23;20024;-93
2023/12/06 12:15:16;;;;;;;7.50;6.15;;;;;;;;;;6180842;23;20420;-93
2023/12/06 12:17:44;;;;;;;11.02;7.03;;;;;;;;;;6132531;23;20024;-93
2023/12/06 12:20:11;;;;;;;7.72;6.20;;;;;;;;;;6132583;23;20024;-93
2023/12/06 12:22:50;;;;;;;9.05;6.32;;;;;;;;;;6199673;23;20096;-91
2023/12/06 12:25:17;;;;;;;8.88;6.70;;;;;;;;;;6206170;23;20086;-92
2023/12/06 12:27:52;;;;;;;7.30;6.57;;;;;;;;;;6156821;23;20103;-93
2023/12/06 12:30:18;;;;;;;9.27;6.13;;;;;;;;;;6156345;23;20452;-93
2023/12/06 12:32:49;;;;;;;13.90;6.07;;;;;;;;;;6156068;23;20017;-93
2023/12/06 12:35:15;;;;;;;6.45;5.30;;;;;;;;;;6205975;22;20024;-93
2023/12/06 12:37:42;;;;;;;7.38;5.95;;;;;;;;;;6156212;23;20020;-93
2023/12/06 12:40:09;;;;;;;10.65;5.22;;;;;;;;;;6156669;23;20473;-91
2023/12/06 12:42:39;;;;;;;10.85;5.40;;;;;;;;;;6206136;22;20103;-93
2023/12/06 12:45:06;;;;;;;8.30;5.85;;;;;;;;;;6205325;22;20055;-93
2023/12/06 12:47:32;;;;;;;7.75;5.50;;;;;;;;;;6155386;23;20020;-93
2023/12/06 12:49:59;;;;;;;5.97;5.05;;;;;;;;;;6206027;22;20036;-94
2023/12/06 12:52:25;;;;;;;10.38;6.20;;;;;;;;;;6206138;22;20039;-93
2023/12/06 12:54:52;;;;;;;5.93;4.60;;;;;;;;;;6156003;23;20033;-93
2023/12/06 12:57:18;;;;;;;6.78;5.22;;;;;;;;;;6206011;22;20028;-92
2023/12/06 12:59:45;;;;;;;8.13;5.57;;;;;;;;;;6171812;23;20046;-90
2023/12/06 13:02:13;;;;;;;6.38;4.80;;;;;;;;;;6177845;23;20020;-91
2023/12/06 13:04:39;;;;;;;5.10;4.15;;;;;;;;;;6205485;23;20027;-93
2023/12/06 13:07:05;;;;;;;6.53;5.15;;;;;;;;;;6202680;22;20155;-93
2023/12/06 13:09:32;;;;;;;6.47;5.22;;;;;;;;;;6202679;23;20032;-90
2023/12/06 13:11:59;;;;;;;6.35;5.32;;;;;;;;;;6204030;22;20629;-92
2023/12/06 13:14:25;;;;;;;10.30;4.72;;;;;;;;;;6156599;23;20082;-91
2023/12/06 13:16:51;;;;;;;6.53;4.80;;;;;;;;;;6205857;23;20458;-94
2023/12/06 13:19:17;;;;;;;7.25;4.97;;;;;;;;;;6206208;23;20025;-90
2023/12/06 13:21:46;;;;;;;7.57;5.22;;;;;;;;;;6210346;22;20020;-90
2023/12/06 13:24:12;;;;;;;5.47;4.95;;;;;;;;;;6161361;23;20024;-91
2023/12/06 13:26:38;;;;;;;7.97;5.93;;;;;;;;;;6162119;23;20074;-90
2023/12/06 13:29:04;;;;;;;8.20;5.63;;;;;;;;;;6211711;23;20020;-93
2023/12/06 13:31:30;;;;;;;9.32;5.97;;;;;;;;;;6211960;23;20023;-92
2023/12/06 13:33:57;;;;;;;6.45;5.35;;;;;;;;;;6161954;23;20035;-91
2023/12/06 13:36:23;;;;;;;8.23;6.05;;;;;;;;;;6210498;23;20408;-89
2023/12/06 13:38:56;;;;;;;9.95;6.78;;;;;;;;;;6211400;23;20024;-90
2023/12/06 13:41:22;;;;;;;10.10;6.30;;;;;;;;;;6162298;23;20031;-90
2023/12/06 13:43:48;;;;;;;14.00;6.60;;;;;;;;;;6211007;23;20031;-91
2023/12/06 13:46:15;;;;;;;8.18;6.57;;;;;;;;;;6211685;23;20356;-89
2023/12/06 13:48:44;;;;;;;9.35;6.93;;;;;;;;;;6210367;23;20028;-91
2023/12/06 13:51:11;;;;;;;11.20;6.93;;;;;;;;;;6210385;23;20123;-91
2023/12/06 13:53:37;;;;;;;9.48;7.15;;;;;;;;;;6211051;23;20016;-90
2023/12/06 13:56:04;;;;;;;11.88;7.15;;;;;;;;;;6210243;23;20524;-91
2023/12/06 13:58:30;;;;;;;11.23;6.63;;;;;;;;;;6161425;23;20063;-90
2023/12/06 14:00:56;;;;;;;10.77;6.20;;;;;;;;;;6210950;23;20103;-91
2023/12/06 14:03:22;;;;;;;12.68;6.88;;;;;;;;;;6210191;23;20020;-90
2023/12/06 14:05:49;;;;;;;9.20;5.95;;;;;;;;;;6161377;23;20027;-91
2023/12/06 14:08:15;;;;;;;8.93;5.90;;;;;;;;;;6211652;23;20078;-91
2023/12/06 14:10:41;;;;;;;7.40;5.03;;;;;;;;;;6162117;23;20032;-94
2023/12/06 14:13:08;;;;;;;5.85;5.03;;;;;;;;;;6212748;23;20031;-92
2023/12/06 14:15:34;;;;;;;6.22;4.70;;;;;;;;;;6212231;23;20107;-93
2023/12/06 14:18:00;;;;;;;7.03;5.68;;;;;;;;;;6212755;23;20055;-91
2023/12/06 14:20:26;;;;;;;5.47;4.90;;;;;;;;;;6212630;23;20031;-94